METAR Formatted Surface Weather Observation
Issued by NWS

Home | Current Version | Previous Version | Text Only | Print | Product List | Glossary On
Versions: 1 2 3 4 5 6 7
000
SAUS45 KPSR 242303
MTRNYL
METAR KNYL 242257Z 25008KT 10SM SCT120 BKN180 BKN300 47/04 A2965 RMK
AO2 CB DSNT SE MOVG NW SLP036 T04670039 $



USA.gov is the U.S. government's official web portal to all federal, state and local government web resources and services.